createdAt,value
2023-03-16T00:02:01.323Z,2.79
2023-03-16T00:04:27.952Z,2.74
2023-03-16T00:06:54.399Z,2.77
2023-03-16T00:09:20.862Z,2.80
2023-03-16T00:11:47.307Z,2.75
2023-03-16T00:14:13.724Z,2.74
2023-03-16T00:16:40.229Z,2.67
2023-03-16T00:19:06.730Z,2.58
2023-03-16T00:21:35.240Z,2.58
2023-03-16T00:24:03.868Z,2.67
2023-03-16T00:26:31.846Z,2.71
2023-03-16T00:28:58.317Z,2.75
2023-03-16T00:31:25.241Z,2.83
2023-03-16T00:33:51.785Z,2.83
2023-03-16T00:36:18.262Z,2.86
2023-03-16T00:38:45.227Z,2.88
2023-03-16T00:41:14.337Z,2.87
2023-03-16T00:43:41.868Z,2.86
2023-03-16T00:46:09.262Z,2.81
2023-03-16T00:48:36.591Z,2.83
2023-03-16T00:51:06.283Z,2.83
2023-03-16T00:53:36.677Z,2.87
2023-03-16T00:56:04.494Z,2.83
2023-03-16T00:58:36.033Z,2.85
2023-03-16T01:01:22.894Z,2.81
2023-03-16T01:03:49.426Z,2.71
2023-03-16T01:06:17.159Z,2.76
2023-03-16T01:08:44.265Z,2.75
2023-03-16T01:11:12.391Z,2.63
2023-03-16T01:13:39.241Z,2.55
2023-03-16T01:16:06.742Z,2.58
2023-03-16T01:18:35.878Z,2.58
2023-03-16T01:21:03.775Z,2.64
2023-03-16T01:23:31.421Z,2.59
2023-03-16T01:25:58.584Z,2.48
2023-03-16T01:28:26.124Z,2.54
2023-03-16T01:30:57.613Z,2.61
2023-03-16T01:33:25.654Z,2.63
2023-03-16T01:35:59.911Z,2.60
2023-03-16T01:38:26.779Z,2.60
2023-03-16T01:40:54.085Z,2.53
2023-03-16T01:43:21.938Z,2.57
2023-03-16T01:46:06.847Z,2.54
2023-03-16T01:48:40.042Z,2.47
2023-03-16T01:51:08.282Z,2.51
2023-03-16T01:53:34.861Z,2.42
2023-03-16T01:56:03.289Z,2.47
2023-03-16T01:58:31.674Z,2.54
2023-03-16T02:01:07.428Z,2.56
2023-03-16T02:03:36.983Z,2.53
2023-03-16T02:06:03.632Z,2.53
2023-03-16T02:08:31.667Z,2.32
2023-03-16T02:10:58.744Z,2.23
2023-03-16T02:13:26.285Z,2.23
2023-03-16T02:15:53.694Z,2.13
2023-03-16T02:18:23.093Z,2.20
2023-03-16T02:21:16.414Z,2.20
2023-03-16T02:23:44.405Z,2.18
2023-03-16T02:26:17.029Z,2.15
2023-03-16T02:28:54.138Z,2.12
2023-03-16T02:31:22.383Z,1.97
2023-03-16T02:33:50.856Z,1.94
2023-03-16T02:36:18.641Z,1.84
2023-03-16T02:38:46.537Z,1.89
2023-03-16T02:41:20.139Z,1.94
2023-03-16T02:43:58.618Z,1.90
2023-03-16T02:46:27.080Z,1.82
2023-03-16T02:48:59.082Z,1.88
2023-03-16T02:51:25.547Z,1.90
2023-03-16T02:53:52.035Z,1.92
2023-03-16T02:56:18.492Z,1.80
2023-03-16T02:58:44.931Z,1.71
2023-03-16T03:01:11.527Z,1.64
2023-03-16T03:03:38.114Z,1.61
2023-03-16T03:06:04.839Z,1.63
2023-03-16T03:08:33.008Z,1.70
2023-03-16T03:10:59.521Z,1.65
2023-03-16T03:13:26.343Z,1.64
2023-03-16T03:15:52.861Z,1.67
2023-03-16T03:18:19.536Z,1.59
2023-03-16T03:20:45.972Z,1.44
2023-03-16T03:23:12.566Z,1.46
2023-03-16T03:25:39.142Z,1.46
2023-03-16T03:28:05.795Z,1.56
2023-03-16T03:30:32.567Z,1.66
2023-03-16T03:32:59.041Z,1.56
2023-03-16T03:35:25.706Z,1.50
2023-03-16T03:37:52.248Z,1.53
2023-03-16T03:40:19.491Z,1.57
2023-03-16T03:42:46.423Z,1.66
2023-03-16T03:45:13.477Z,1.65
2023-03-16T03:47:40.664Z,1.56
2023-03-16T03:50:07.421Z,1.52
2023-03-16T03:52:33.890Z,1.47
2023-03-16T03:55:00.538Z,1.32
2023-03-16T03:57:26.972Z,1.38
2023-03-16T03:59:53.413Z,1.29
2023-03-16T04:02:19.937Z,1.24
2023-03-16T04:04:46.456Z,1.18
2023-03-16T04:07:13.006Z,1.15
2023-03-16T04:09:39.510Z,1.15
2023-03-16T04:12:06.307Z,1.19
2023-03-16T04:14:33.109Z,1.15
2023-03-16T04:16:59.703Z,1.23
2023-03-16T04:19:26.342Z,1.33
2023-03-16T04:21:53.128Z,1.36
2023-03-16T04:24:19.758Z,1.42
2023-03-16T04:26:46.706Z,1.30
2023-03-16T04:29:18.327Z,1.27
2023-03-16T04:31:45.423Z,1.22
2023-03-16T04:34:11.874Z,1.22
2023-03-16T04:36:39.058Z,1.28
2023-03-16T04:39:05.946Z,1.26
2023-03-16T04:41:32.827Z,1.25
2023-03-16T04:43:59.275Z,1.30
2023-03-16T04:46:26.898Z,1.25
2023-03-16T04:48:54.037Z,1.09
2023-03-16T04:51:21.568Z,1.10
2023-03-16T04:53:48.174Z,1.16
2023-03-16T04:56:19.640Z,1.20
2023-03-16T04:58:47.149Z,1.24
2023-03-16T05:01:13.685Z,1.32
2023-03-16T05:03:40.489Z,1.35
2023-03-16T05:06:09.970Z,1.29
2023-03-16T05:08:36.632Z,1.26
2023-03-16T05:11:03.077Z,1.22
2023-03-16T05:13:29.533Z,1.30
2023-03-16T05:15:56.076Z,1.37
2023-03-16T05:18:22.605Z,1.41
2023-03-16T05:20:53.512Z,1.38
2023-03-16T05:23:20.442Z,1.30
2023-03-16T05:25:47.376Z,1.31
2023-03-16T05:28:15.071Z,1.27
2023-03-16T05:30:42.327Z,1.29
2023-03-16T05:33:08.996Z,1.17
2023-03-16T05:35:35.632Z,1.19
2023-03-16T05:38:02.785Z,1.12
2023-03-16T05:40:29.966Z,1.08
2023-03-16T05:42:57.406Z,1.04
2023-03-16T05:45:24.309Z,1.04
2023-03-16T05:47:50.788Z,0.98
2023-03-16T05:50:17.609Z,0.89
2023-03-16T05:52:44.684Z,0.84
2023-03-16T05:55:12.089Z,0.91
2023-03-16T05:57:38.532Z,0.98
2023-03-16T06:00:14.675Z,1.02
2023-03-16T06:02:46.962Z,1.11
2023-03-16T06:05:13.577Z,1.18
2023-03-16T06:07:40.118Z,1.19
2023-03-16T06:10:06.869Z,1.21
2023-03-16T06:12:34.602Z,1.10
2023-03-16T06:15:02.050Z,1.14
2023-03-16T06:17:28.542Z,1.13
2023-03-16T06:19:55.177Z,1.21
2023-03-16T06:22:21.709Z,1.22
2023-03-16T06:24:48.304Z,1.23
2023-03-16T06:27:14.752Z,1.27
2023-03-16T06:29:41.326Z,1.29
2023-03-16T06:32:07.792Z,1.36
2023-03-16T06:34:35.856Z,1.37
2023-03-16T06:37:04.088Z,1.31
2023-03-16T06:39:30.938Z,1.32
2023-03-16T06:41:57.944Z,1.34
2023-03-16T06:44:24.582Z,1.31
2023-03-16T06:46:51.125Z,1.27
2023-03-16T06:49:17.580Z,1.20
2023-03-16T06:51:43.996Z,1.22
2023-03-16T06:54:10.438Z,1.26
2023-03-16T06:56:36.928Z,1.26
2023-03-16T06:59:03.456Z,1.19
2023-03-16T07:01:30.355Z,1.23
2023-03-16T07:03:56.890Z,1.30
2023-03-16T07:06:23.384Z,1.28
2023-03-16T07:08:49.893Z,1.27
2023-03-16T07:11:16.389Z,1.27
2023-03-16T07:13:42.909Z,1.26
2023-03-16T07:16:09.390Z,1.27
2023-03-16T07:18:38.034Z,1.31
2023-03-16T07:21:04.623Z,1.33
2023-03-16T07:23:32.370Z,1.33
2023-03-16T07:25:58.874Z,1.35
2023-03-16T07:28:25.386Z,1.41
2023-03-16T07:31:03.009Z,1.40
2023-03-16T07:33:32.325Z,1.45
2023-03-16T07:35:59.361Z,1.50
2023-03-16T07:38:25.895Z,1.50
2023-03-16T07:40:52.402Z,1.57
2023-03-16T07:43:19.363Z,1.50
2023-03-16T07:45:49.943Z,1.50
2023-03-16T07:48:17.113Z,1.58
2023-03-16T07:50:43.711Z,1.50
2023-03-16T07:53:10.582Z,1.52
2023-03-16T07:55:38.912Z,1.53
2023-03-16T07:58:06.262Z,1.59
2023-03-16T08:00:33.465Z,1.59
2023-03-16T08:03:00.228Z,1.57
2023-03-16T08:05:27.875Z,1.61
2023-03-16T08:07:57.409Z,1.68
2023-03-16T08:10:24.505Z,1.71
2023-03-16T08:12:51.703Z,1.66
2023-03-16T08:15:18.535Z,1.73
2023-03-16T08:17:45.680Z,1.81
2023-03-16T08:20:14.785Z,1.92
2023-03-16T08:22:42.257Z,1.99
2023-03-16T08:25:11.811Z,2.06
2023-03-16T08:27:38.603Z,2.14
2023-03-16T08:30:06.167Z,2.19
2023-03-16T08:32:33.176Z,2.23
2023-03-16T08:35:00.652Z,2.25
2023-03-16T08:37:27.679Z,2.28
2023-03-16T08:39:54.379Z,2.27
2023-03-16T08:42:21.193Z,2.32
2023-03-16T08:44:48.071Z,2.36
2023-03-16T08:47:15.038Z,2.32
2023-03-16T08:49:41.466Z,2.30
2023-03-16T08:52:10.382Z,2.30
2023-03-16T08:54:37.025Z,2.34
2023-03-16T08:57:03.605Z,2.41
2023-03-16T08:59:30.772Z,2.39
2023-03-16T09:01:57.822Z,2.43
2023-03-16T09:04:24.435Z,2.41
2023-03-16T09:07:09.890Z,2.36
2023-03-16T09:09:37.162Z,2.40
2023-03-16T09:12:04.388Z,2.56
2023-03-16T09:14:30.928Z,2.68
2023-03-16T09:16:57.517Z,2.58
2023-03-16T09:19:25.041Z,2.54
2023-03-16T09:21:51.535Z,2.61
2023-03-16T09:24:17.989Z,2.70
2023-03-16T09:26:45.333Z,2.77
2023-03-16T09:29:12.037Z,2.87
2023-03-16T09:31:38.556Z,2.96
2023-03-16T09:34:05.145Z,3.01
2023-03-16T09:36:31.578Z,3.03
2023-03-16T09:38:58.076Z,3.02
2023-03-16T09:41:43.465Z,2.97
2023-03-16T09:44:26.272Z,2.96
2023-03-16T09:46:53.310Z,2.98
2023-03-16T09:49:21.097Z,3.02
2023-03-16T09:52:10.847Z,2.97
2023-03-16T09:54:40.387Z,3.05
2023-03-16T09:57:15.428Z,3.10
2023-03-16T09:59:42.258Z,3.20
2023-03-16T10:02:28.937Z,3.18
2023-03-16T10:05:14.781Z,3.13
2023-03-16T10:07:41.589Z,3.08
2023-03-16T10:10:11.125Z,3.11
2023-03-16T10:12:41.547Z,3.13
2023-03-16T10:15:14.629Z,3.11
2023-03-16T10:17:46.226Z,3.20
2023-03-16T10:20:18.602Z,3.34
2023-03-16T10:22:46.246Z,3.42
2023-03-16T10:25:35.644Z,3.37
2023-03-16T10:28:02.216Z,3.37
2023-03-16T10:30:38.724Z,3.39
2023-03-16T10:33:18.262Z,3.34
2023-03-16T10:35:49.888Z,3.30
2023-03-16T10:38:27.183Z,3.32
2023-03-16T10:40:53.990Z,3.43
2023-03-16T10:43:20.816Z,3.44
2023-03-16T10:45:47.305Z,3.50
2023-03-16T10:48:15.414Z,3.58
2023-03-16T10:50:43.118Z,3.59
2023-03-16T10:53:25.406Z,3.59
2023-03-16T10:55:57.265Z,3.59
2023-03-16T10:58:30.792Z,3.56
2023-03-16T11:00:57.409Z,3.49
2023-03-16T11:03:28.894Z,3.46
2023-03-16T11:06:00.704Z,3.54
2023-03-16T11:08:28.239Z,3.63
2023-03-16T11:10:59.143Z,3.63
2023-03-16T11:13:32.189Z,3.61
2023-03-16T11:16:17.421Z,3.61
2023-03-16T11:18:45.339Z,3.61
2023-03-16T11:21:27.506Z,3.67
2023-03-16T11:23:56.071Z,3.72
2023-03-16T11:26:25.762Z,3.77
2023-03-16T11:28:56.479Z,3.84
2023-03-16T11:31:40.457Z,3.83
2023-03-16T11:34:15.520Z,3.90
2023-03-16T11:36:49.662Z,3.99
2023-03-16T11:39:45.730Z,4.18
2023-03-16T11:42:27.814Z,4.21
2023-03-16T11:45:12.786Z,4.18
2023-03-16T11:47:58.209Z,4.11
2023-03-16T11:50:36.331Z,4.08
2023-03-16T11:53:15.015Z,4.07
2023-03-16T11:55:47.693Z,4.04
2023-03-16T11:58:32.716Z,4.07
2023-03-16T12:01:14.367Z,4.28
2023-03-16T12:04:10.365Z,4.44
2023-03-16T12:06:41.908Z,4.45
2023-03-16T12:09:08.401Z,4.47
2023-03-16T12:11:42.479Z,4.27
2023-03-16T12:14:30.851Z,4.38
2023-03-16T12:17:17.546Z,4.31
2023-03-16T12:19:54.055Z,4.31
2023-03-16T12:22:22.840Z,4.54
2023-03-16T12:24:49.406Z,4.67
2023-03-16T12:27:17.797Z,4.73
2023-03-16T12:29:47.120Z,4.71
2023-03-16T12:32:18.900Z,4.62
2023-03-16T12:34:53.393Z,4.58
2023-03-16T12:37:27.596Z,4.48
2023-03-16T12:39:54.018Z,4.42
2023-03-16T12:42:26.534Z,4.42
2023-03-16T12:45:13.345Z,4.56
2023-03-16T12:47:57.128Z,4.68
2023-03-16T12:50:24.507Z,4.87
2023-03-16T12:52:52.247Z,5.04
2023-03-16T12:55:20.329Z,5.10
2023-03-16T12:57:48.897Z,5.16
2023-03-16T13:00:16.356Z,5.23
2023-03-16T13:02:44.957Z,5.22
2023-03-16T13:05:15.785Z,4.98
2023-03-16T13:07:52.643Z,4.84
2023-03-16T13:10:21.083Z,4.79
2023-03-16T13:12:48.038Z,4.83
2023-03-16T13:15:17.758Z,4.90
2023-03-16T13:17:44.360Z,4.88
2023-03-16T13:20:27.690Z,4.83
2023-03-16T13:23:19.037Z,4.85
2023-03-16T13:25:58.112Z,4.94
2023-03-16T13:28:28.017Z,4.92
2023-03-16T13:30:54.532Z,4.95
2023-03-16T13:33:21.888Z,4.99
2023-03-16T13:35:49.709Z,4.94
2023-03-16T13:38:17.294Z,4.89
2023-03-16T13:40:48.009Z,4.89
2023-03-16T13:43:19.118Z,4.82
2023-03-16T13:45:45.875Z,4.81
2023-03-16T13:48:16.326Z,4.85
2023-03-16T13:50:43.375Z,4.91
2023-03-16T13:53:17.251Z,5.07
2023-03-16T13:55:45.435Z,5.12
2023-03-16T13:58:20.683Z,5.12
2023-03-16T14:00:47.225Z,5.08
2023-03-16T14:03:16.257Z,4.97
2023-03-16T14:05:42.841Z,4.84
2023-03-16T14:08:20.070Z,4.85
2023-03-16T14:10:47.062Z,4.85
2023-03-16T14:13:25.810Z,4.80
2023-03-16T14:15:56.575Z,4.77
2023-03-16T14:18:25.646Z,4.82
2023-03-16T14:20:53.085Z,4.82
2023-03-16T14:23:24.722Z,4.95
2023-03-16T14:25:53.575Z,4.95
2023-03-16T14:28:22.384Z,4.99
2023-03-16T14:30:53.295Z,4.93
2023-03-16T14:33:30.053Z,4.83
2023-03-16T14:35:58.122Z,4.72
2023-03-16T14:38:32.922Z,4.62
2023-03-16T14:41:11.838Z,4.66
2023-03-16T14:43:48.752Z,4.64
2023-03-16T14:46:19.644Z,4.67
2023-03-16T14:48:46.144Z,4.71
2023-03-16T14:51:14.121Z,4.68
2023-03-16T14:53:40.912Z,4.66
2023-03-16T14:56:16.589Z,4.65
2023-03-16T14:58:43.009Z,4.68
2023-03-16T15:01:18.022Z,4.73
2023-03-16T15:03:45.142Z,4.71
2023-03-16T15:06:11.684Z,4.69
2023-03-16T15:08:44.319Z,4.63
2023-03-16T15:11:10.917Z,4.65
2023-03-16T15:13:47.116Z,4.66
2023-03-16T15:16:14.421Z,4.62
2023-03-16T15:18:42.021Z,4.62
2023-03-16T15:21:12.916Z,4.63
2023-03-16T15:23:40.353Z,4.67
2023-03-16T15:26:07.749Z,4.61
2023-03-16T15:28:34.625Z,4.48
2023-03-16T15:31:02.359Z,4.53
2023-03-16T15:33:29.112Z,4.51
2023-03-16T15:35:57.131Z,4.57
2023-03-16T15:38:34.756Z,4.60
2023-03-16T15:41:01.240Z,4.58
2023-03-16T15:43:29.017Z,4.59
2023-03-16T15:45:56.016Z,4.58
2023-03-16T15:48:24.585Z,4.51
2023-03-16T15:51:02.055Z,4.55
2023-03-16T15:53:36.883Z,4.56
2023-03-16T15:56:05.958Z,4.61
2023-03-16T15:58:34.178Z,4.66
2023-03-16T16:01:01.826Z,4.54
2023-03-16T16:03:28.408Z,4.49
2023-03-16T16:05:55.065Z,4.48
2023-03-16T16:08:21.570Z,4.46
2023-03-16T16:10:48.746Z,4.48
2023-03-16T16:13:43.054Z,4.46
2023-03-16T16:16:15.121Z,4.41
2023-03-16T16:18:42.812Z,4.45
2023-03-16T16:21:15.179Z,4.50
2023-03-16T16:23:41.678Z,4.44
2023-03-16T16:26:23.295Z,4.49
2023-03-16T16:28:49.811Z,4.53
2023-03-16T16:31:16.630Z,4.58
2023-03-16T16:33:43.133Z,4.59
2023-03-16T16:36:21.074Z,4.62
2023-03-16T16:38:48.887Z,4.60
2023-03-16T16:41:23.844Z,4.58
2023-03-16T16:43:51.875Z,4.59
2023-03-16T16:46:19.630Z,4.54
2023-03-16T16:48:47.267Z,4.46
2023-03-16T16:51:18.899Z,4.38
2023-03-16T16:53:45.949Z,4.27
2023-03-16T16:56:13.716Z,4.17
2023-03-16T16:58:40.700Z,4.07
2023-03-16T17:01:13.796Z,3.95
2023-03-16T17:03:40.564Z,3.84
2023-03-16T17:06:07.066Z,3.75
2023-03-16T17:08:34.262Z,3.66
2023-03-16T17:11:00.704Z,3.59
2023-03-16T17:13:38.949Z,3.48
2023-03-16T17:16:07.322Z,3.39
2023-03-16T17:18:33.817Z,3.35
2023-03-16T17:21:00.321Z,3.28
2023-03-16T17:23:34.592Z,3.15
2023-03-16T17:26:03.013Z,3.06
2023-03-16T17:28:32.313Z,3.02
2023-03-16T17:30:59.005Z,3.01
2023-03-16T17:33:26.145Z,2.99
2023-03-16T17:35:52.659Z,2.94
2023-03-16T17:38:23.342Z,2.90
2023-03-16T17:40:51.052Z,2.88
2023-03-16T17:43:19.543Z,2.81
2023-03-16T17:45:47.139Z,2.73
2023-03-16T17:48:15.247Z,2.68
2023-03-16T17:50:41.742Z,2.64
2023-03-16T17:53:08.310Z,2.58
2023-03-16T17:55:34.947Z,2.52
2023-03-16T17:58:01.552Z,2.42
2023-03-16T18:00:31.879Z,2.34
2023-03-16T18:03:11.210Z,2.27
2023-03-16T18:05:38.186Z,2.17
2023-03-16T18:08:14.073Z,2.14
2023-03-16T18:10:40.811Z,2.13
2023-03-16T18:13:13.969Z,2.11
2023-03-16T18:15:40.432Z,2.01
2023-03-16T18:18:10.324Z,1.93
2023-03-16T18:20:37.640Z,1.85
2023-03-16T18:23:30.342Z,1.85
2023-03-16T18:26:01.206Z,1.83
2023-03-16T18:28:28.761Z,1.79
2023-03-16T18:30:57.310Z,1.73
2023-03-16T18:33:26.006Z,1.64
2023-03-16T18:35:53.556Z,1.56
2023-03-16T18:38:30.638Z,1.56
2023-03-16T18:41:02.096Z,1.57
2023-03-16T18:43:29.121Z,1.50
2023-03-16T18:45:56.001Z,1.43
2023-03-16T18:48:25.391Z,1.34
2023-03-16T18:50:52.215Z,1.28
2023-03-16T18:53:19.923Z,1.23
2023-03-16T18:55:46.431Z,1.16
2023-03-16T18:58:15.187Z,1.08
2023-03-16T19:00:42.134Z,1.00
2023-03-16T19:03:13.892Z,0.95
2023-03-16T19:05:40.718Z,0.87
2023-03-16T19:08:07.341Z,0.81
2023-03-16T19:10:36.614Z,0.72
2023-03-16T19:13:03.379Z,0.66
2023-03-16T19:15:33.925Z,0.59
2023-03-16T19:18:00.728Z,0.56
2023-03-16T19:20:28.722Z,0.51
2023-03-16T19:23:07.197Z,0.47
2023-03-16T19:25:37.484Z,0.43
2023-03-16T19:28:05.744Z,0.39
2023-03-16T19:30:33.423Z,0.34
2023-03-16T19:33:00.565Z,0.32
2023-03-16T19:35:41.000Z,0.29
2023-03-16T19:38:15.558Z,0.21
2023-03-16T19:40:42.470Z,0.19
2023-03-16T19:43:15.579Z,0.18
2023-03-16T19:45:43.016Z,0.14
2023-03-16T19:48:12.750Z,0.08
2023-03-16T19:50:39.236Z,0.02
2023-03-16T19:53:06.250Z,-0.02
2023-03-16T19:55:32.945Z,-0.05
2023-03-16T19:58:01.989Z,-0.09
2023-03-16T20:00:30.206Z,-0.15
2023-03-16T20:02:57.203Z,-0.19
2023-03-16T20:05:25.069Z,-0.22
2023-03-16T20:07:52.324Z,-0.24
2023-03-16T20:10:20.646Z,-0.28
2023-03-16T20:12:48.295Z,-0.32
2023-03-16T20:15:18.332Z,-0.36
2023-03-16T20:17:44.925Z,-0.40
2023-03-16T20:20:22.680Z,-0.45
2023-03-16T20:22:49.673Z,-0.52
2023-03-16T20:25:16.347Z,-0.59
2023-03-16T20:27:43.337Z,-0.66
2023-03-16T20:30:14.682Z,-0.68
2023-03-16T20:32:42.960Z,-0.68
2023-03-16T20:35:17.075Z,-0.70
2023-03-16T20:37:43.731Z,-0.75
2023-03-16T20:40:11.138Z,-0.75
2023-03-16T20:42:37.932Z,-0.78
2023-03-16T20:45:24.017Z,-0.80
2023-03-16T20:47:51.922Z,-0.82
2023-03-16T20:50:20.050Z,-0.84
2023-03-16T20:52:46.569Z,-0.87
2023-03-16T20:55:15.880Z,-0.92
2023-03-16T20:57:43.574Z,-0.96
2023-03-16T21:00:29.474Z,-1.01
2023-03-16T21:02:56.451Z,-1.06
2023-03-16T21:05:23.969Z,-1.08
2023-03-16T21:07:51.451Z,-1.08
2023-03-16T21:10:22.318Z,-1.07
2023-03-16T21:12:58.142Z,-1.08
2023-03-16T21:15:29.504Z,-1.10
2023-03-16T21:18:00.831Z,-1.14
2023-03-16T21:20:29.393Z,-1.14
2023-03-16T21:22:56.294Z,-1.16
2023-03-16T21:25:34.383Z,-1.17
2023-03-16T21:28:02.413Z,-1.20
2023-03-16T21:30:30.741Z,-1.21
2023-03-16T21:32:59.269Z,-1.27
2023-03-16T21:35:32.876Z,-1.32
2023-03-16T21:38:01.973Z,-1.33
2023-03-16T21:40:29.131Z,-1.36
2023-03-16T21:42:55.973Z,-1.43
2023-03-16T21:45:22.462Z,-1.44
2023-03-16T21:47:49.014Z,-1.42
2023-03-16T21:50:22.639Z,-1.40
2023-03-16T21:52:50.259Z,-1.43
2023-03-16T21:55:23.701Z,-1.44
2023-03-16T21:57:51.176Z,-1.45
2023-03-16T22:00:19.514Z,-1.48
2023-03-16T22:02:47.716Z,-1.51
2023-03-16T22:05:24.995Z,-1.55
2023-03-16T22:07:51.525Z,-1.58
2023-03-16T22:10:18.406Z,-1.59
2023-03-16T22:12:44.897Z,-1.59
2023-03-16T22:15:12.465Z,-1.57
2023-03-16T22:17:39.298Z,-1.57
2023-03-16T22:20:15.899Z,-1.56
2023-03-16T22:22:42.561Z,-1.59
2023-03-16T22:25:13.619Z,-1.59
2023-03-16T22:27:40.135Z,-1.62
2023-03-16T22:30:07.107Z,-1.66
2023-03-16T22:32:33.805Z,-1.71
2023-03-16T22:35:00.404Z,-1.75
2023-03-16T22:37:28.598Z,-1.76
2023-03-16T22:39:57.367Z,-1.78
2023-03-16T22:42:37.036Z,-1.80
2023-03-16T22:45:05.649Z,-1.82
2023-03-16T22:47:36.919Z,-1.85
2023-03-16T22:50:03.620Z,-1.87
2023-03-16T22:52:31.115Z,-1.90
2023-03-16T22:54:58.680Z,-1.93
2023-03-16T22:57:25.358Z,-1.93
2023-03-16T22:59:52.259Z,-1.98
2023-03-16T23:02:20.943Z,-2.00
2023-03-16T23:04:47.405Z,-2.01
2023-03-16T23:07:14.157Z,-2.08
2023-03-16T23:09:40.801Z,-2.13
2023-03-16T23:12:19.234Z,-2.14
2023-03-16T23:14:45.675Z,-2.19
2023-03-16T23:17:22.327Z,-2.19
2023-03-16T23:19:48.931Z,-2.21
2023-03-16T23:22:15.457Z,-2.20
2023-03-16T23:24:42.572Z,-2.21
2023-03-16T23:27:17.412Z,-2.24
2023-03-16T23:29:44.246Z,-2.31
2023-03-16T23:32:11.673Z,-2.34
2023-03-16T23:34:38.170Z,-2.39
2023-03-16T23:37:04.638Z,-2.39
2023-03-16T23:39:31.105Z,-2.39
2023-03-16T23:41:57.737Z,-2.36
2023-03-16T23:44:26.315Z,-2.31
2023-03-16T23:46:53.275Z,-2.33
2023-03-16T23:49:24.337Z,-2.36
2023-03-16T23:51:51.811Z,-2.42
2023-03-16T23:54:29.752Z,-2.41
2023-03-16T23:56:57.200Z,-2.36
2023-03-16T23:59:23.845Z,-2.34
